createdAt,value
2019-03-21T00:00:26.224Z,25.80
2019-03-21T00:03:03.176Z,25.80
2019-03-21T00:05:41.294Z,25.90
2019-03-21T00:08:19.379Z,26.00
2019-03-21T00:11:42.056Z,26.10
2019-03-21T00:14:54.573Z,26.20
2019-03-21T00:17:43.500Z,26.20
2019-03-21T00:20:21.349Z,26.30
2019-03-21T00:22:58.170Z,26.40
2019-03-21T00:25:36.613Z,26.50
2019-03-21T00:28:13.710Z,26.60
2019-03-21T00:30:50.904Z,26.60
2019-03-21T00:33:27.819Z,26.70
2019-03-21T00:36:05.658Z,26.80
2019-03-21T00:38:43.560Z,26.90
2019-03-21T00:41:21.831Z,27.00
2019-03-21T00:43:58.925Z,27.10
2019-03-21T00:46:36.131Z,27.20
2019-03-21T00:49:14.152Z,27.20
2019-03-21T00:51:51.417Z,27.40
2019-03-21T00:54:28.418Z,27.50
2019-03-21T00:57:05.665Z,27.60
2019-03-21T00:59:42.566Z,27.70
2019-03-21T01:02:19.586Z,27.80
2019-03-21T01:04:57.119Z,27.90
2019-03-21T01:07:33.826Z,28.00
2019-03-21T01:10:12.763Z,28.10
2019-03-21T01:12:49.690Z,28.20
2019-03-21T01:15:27.251Z,28.30
2019-03-21T01:18:04.283Z,28.40
2019-03-21T01:20:40.999Z,28.50
2019-03-21T01:23:18.213Z,28.60
2019-03-21T01:25:56.255Z,28.70
2019-03-21T01:28:33.324Z,28.90
2019-03-21T01:31:12.143Z,28.80
2019-03-21T01:33:49.409Z,29.00
2019-03-21T01:36:27.466Z,29.30
2019-03-21T01:39:04.904Z,29.30
2019-03-21T01:41:41.922Z,29.50
2019-03-21T01:44:19.081Z,29.60
2019-03-21T01:46:56.138Z,29.50
2019-03-21T01:49:33.017Z,29.70
2019-03-21T01:52:10.039Z,29.60
2019-03-21T01:54:47.187Z,29.80
2019-03-21T01:57:24.478Z,30.10
2019-03-21T02:00:01.340Z,30.10
2019-03-21T02:02:38.308Z,30.20
2019-03-21T02:05:15.765Z,30.20
2019-03-21T02:07:52.800Z,30.20
2019-03-21T02:10:29.770Z,30.30
2019-03-21T02:13:07.076Z,30.40
2019-03-21T02:15:44.039Z,30.60
2019-03-21T02:18:21.021Z,30.90
2019-03-21T02:20:58.106Z,30.80
2019-03-21T02:23:37.502Z,30.90
2019-03-21T02:26:14.422Z,31.30
2019-03-21T02:28:51.518Z,31.30
2019-03-21T02:31:28.078Z,31.30
2019-03-21T02:34:04.855Z,31.40
2019-03-21T02:36:42.042Z,31.60
2019-03-21T02:39:18.689Z,31.70
2019-03-21T02:41:55.981Z,31.70
2019-03-21T02:44:33.151Z,31.70
2019-03-21T02:47:10.308Z,31.60
2019-03-21T02:49:47.023Z,31.80
2019-03-21T02:52:24.047Z,32.10
2019-03-21T02:55:00.958Z,32.10
2019-03-21T02:57:38.830Z,32.30
2019-03-21T03:00:18.662Z,32.20
2019-03-21T03:02:56.998Z,32.30
2019-03-21T03:05:35.738Z,32.30
2019-03-21T03:08:16.404Z,32.30
2019-03-21T03:10:55.513Z,32.30
2019-03-21T03:13:33.123Z,32.30
2019-03-21T03:16:10.399Z,32.50
2019-03-21T03:18:47.720Z,32.70
2019-03-21T03:21:25.269Z,32.90
2019-03-21T03:24:02.206Z,32.80
2019-03-21T03:26:39.436Z,33.00
2019-03-21T03:29:16.450Z,33.00
2019-03-21T03:31:56.613Z,33.10
2019-03-21T03:34:33.660Z,33.20
2019-03-21T03:37:10.444Z,32.90
2019-03-21T03:39:47.815Z,33.00
2019-03-21T03:42:24.766Z,33.20
2019-03-21T03:45:01.844Z,33.40
2019-03-21T03:47:38.940Z,33.20
2019-03-21T03:50:16.682Z,33.50
2019-03-21T03:52:53.877Z,33.60
2019-03-21T03:55:30.863Z,33.70
2019-03-21T03:58:09.353Z,33.70
2019-03-21T04:00:46.101Z,33.80
2019-03-21T04:03:23.370Z,33.90
2019-03-21T04:06:01.498Z,34.00
2019-03-21T04:08:38.463Z,34.00
2019-03-21T04:11:15.764Z,33.90
2019-03-21T04:13:52.839Z,34.00
2019-03-21T04:16:30.254Z,34.30
2019-03-21T04:19:07.017Z,34.50
2019-03-21T04:21:43.887Z,34.60
2019-03-21T04:24:21.033Z,34.40
2019-03-21T04:26:58.061Z,34.70
2019-03-21T04:29:34.851Z,34.60
2019-03-21T04:32:12.449Z,34.70
2019-03-21T04:34:49.233Z,34.80
2019-03-21T04:37:25.836Z,34.80
2019-03-21T04:40:20.693Z,34.90
2019-03-21T04:43:04.354Z,34.60
2019-03-21T04:45:41.553Z,34.90
2019-03-21T04:48:19.672Z,35.10
2019-03-21T04:50:56.682Z,35.10
2019-03-21T04:53:33.822Z,35.20
2019-03-21T04:56:10.394Z,35.30
2019-03-21T04:58:47.308Z,35.30
2019-03-21T05:01:23.846Z,35.40
2019-03-21T05:04:00.848Z,35.30
2019-03-21T05:06:37.848Z,35.40
2019-03-21T05:09:18.700Z,35.60
2019-03-21T05:11:55.483Z,35.60
2019-03-21T05:14:34.925Z,35.50
2019-03-21T05:17:13.316Z,35.50
2019-03-21T05:19:50.634Z,35.70
2019-03-21T05:22:28.964Z,35.30
2019-03-21T05:25:06.203Z,35.50
2019-03-21T05:27:44.903Z,35.60
2019-03-21T05:30:24.874Z,35.90
2019-03-21T05:33:01.961Z,35.90
2019-03-21T05:35:39.918Z,35.80
2019-03-21T05:38:17.487Z,35.90
2019-03-21T05:40:54.125Z,36.00
2019-03-21T05:43:34.148Z,36.00
2019-03-21T05:46:11.007Z,36.10
2019-03-21T05:48:47.989Z,36.30
2019-03-21T05:51:24.884Z,36.50
2019-03-21T05:54:02.072Z,36.50
2019-03-21T05:56:39.374Z,36.40
2019-03-21T05:59:16.485Z,36.20
2019-03-21T06:01:53.433Z,36.10
2019-03-21T06:04:30.211Z,36.30
2019-03-21T06:07:18.266Z,36.30
2019-03-21T06:09:55.248Z,36.20
2019-03-21T06:12:32.271Z,36.10
2019-03-21T06:15:09.578Z,36.00
2019-03-21T06:17:47.960Z,36.00
2019-03-21T06:21:00.234Z,36.00
2019-03-21T06:23:57.365Z,36.20
2019-03-21T06:26:47.295Z,36.60
2019-03-21T06:29:24.245Z,36.80
2019-03-21T06:32:01.387Z,36.80
2019-03-21T06:34:38.519Z,36.20
2019-03-21T06:37:15.528Z,36.00
2019-03-21T06:39:52.509Z,35.90
2019-03-21T06:42:29.381Z,36.00
2019-03-21T06:45:06.429Z,36.40
2019-03-21T06:47:43.239Z,36.70
2019-03-21T06:50:21.313Z,36.70
2019-03-21T06:52:58.364Z,36.80
2019-03-21T06:55:35.981Z,37.00
2019-03-21T06:58:14.221Z,37.00
2019-03-21T07:00:51.269Z,37.20
2019-03-21T07:03:28.203Z,37.00
2019-03-21T07:06:05.365Z,37.10
2019-03-21T07:08:42.717Z,37.10
2019-03-21T07:11:19.582Z,36.70
2019-03-21T07:13:56.459Z,36.30
2019-03-21T07:16:33.553Z,36.50
2019-03-21T07:19:10.940Z,36.50
2019-03-21T07:21:48.018Z,36.40
2019-03-21T07:24:25.342Z,36.50
2019-03-21T07:27:02.280Z,36.30
2019-03-21T07:29:39.536Z,36.60
2019-03-21T07:32:16.835Z,37.00
2019-03-21T07:34:53.870Z,36.90
2019-03-21T07:37:31.039Z,37.00
2019-03-21T07:40:09.446Z,37.00
2019-03-21T07:42:46.354Z,37.10
2019-03-21T07:45:24.341Z,37.20
2019-03-21T07:48:01.264Z,37.20
2019-03-21T07:50:37.967Z,37.10
2019-03-21T07:53:15.007Z,36.90
2019-03-21T07:55:51.834Z,37.00
2019-03-21T07:58:28.661Z,37.10
2019-03-21T08:01:07.097Z,37.10
2019-03-21T08:03:44.265Z,37.20
2019-03-21T08:06:21.279Z,37.20
2019-03-21T08:08:58.183Z,37.30
2019-03-21T08:11:35.241Z,37.40
2019-03-21T08:14:12.126Z,37.10
2019-03-21T08:16:49.310Z,37.20
2019-03-21T08:19:26.373Z,37.00
2019-03-21T08:22:03.881Z,37.00
2019-03-21T08:24:40.897Z,37.00
2019-03-21T08:27:17.941Z,37.00
2019-03-21T08:29:55.607Z,36.90
2019-03-21T08:32:32.984Z,37.00
2019-03-21T08:35:10.897Z,37.10
2019-03-21T08:37:47.874Z,37.00
2019-03-21T08:40:27.740Z,37.20
2019-03-21T08:43:05.688Z,37.00
2019-03-21T08:45:42.771Z,37.20
2019-03-21T08:48:19.811Z,37.20
2019-03-21T08:51:07.328Z,37.40
2019-03-21T08:53:35.605Z,37.50
2019-03-21T08:56:14.076Z,37.40
2019-03-21T08:58:51.192Z,37.40
2019-03-21T09:01:28.302Z,37.30
2019-03-21T09:04:05.171Z,37.20
2019-03-21T09:06:42.387Z,36.90
2019-03-21T09:09:19.621Z,36.90
2019-03-21T09:11:56.598Z,36.80
2019-03-21T09:14:33.479Z,36.60
2019-03-21T09:17:08.869Z,36.70
2019-03-21T09:19:46.313Z,36.60
2019-03-21T09:22:24.031Z,36.50
2019-03-21T09:25:00.711Z,36.40
2019-03-21T09:27:37.442Z,36.60
2019-03-21T09:30:14.786Z,36.60
2019-03-21T09:32:51.816Z,36.50
2019-03-21T09:35:29.051Z,36.30
2019-03-21T09:38:06.767Z,36.40
2019-03-21T09:40:43.522Z,36.60
2019-03-21T09:43:20.602Z,36.50
2019-03-21T09:45:57.682Z,36.60
2019-03-21T09:48:34.510Z,36.60
2019-03-21T09:51:11.811Z,36.60
2019-03-21T09:53:48.647Z,36.40
2019-03-21T09:56:25.720Z,36.30
2019-03-21T09:59:03.885Z,36.10
2019-03-21T10:01:41.091Z,36.10
2019-03-21T10:04:18.310Z,35.90
2019-03-21T10:06:55.323Z,36.00
2019-03-21T10:09:32.326Z,36.00
2019-03-21T10:12:09.510Z,36.00
2019-03-21T10:14:46.528Z,35.80
2019-03-21T10:17:24.095Z,35.80
2019-03-21T10:20:01.164Z,35.60
2019-03-21T10:22:38.175Z,35.40
2019-03-21T10:25:15.046Z,35.30
2019-03-21T10:27:51.971Z,35.20
2019-03-21T10:30:42.464Z,35.10
2019-03-21T10:33:21.165Z,35.00
2019-03-21T10:35:58.754Z,35.00
2019-03-21T10:38:35.768Z,34.90
2019-03-21T10:41:12.967Z,34.70
2019-03-21T10:43:49.925Z,34.70
2019-03-21T10:46:27.562Z,34.60
2019-03-21T10:49:04.345Z,34.50
2019-03-21T10:51:41.494Z,34.30
2019-03-21T10:54:18.585Z,34.50
2019-03-21T10:56:55.544Z,34.50
2019-03-21T10:59:32.638Z,34.40
2019-03-21T11:02:09.753Z,34.20
2019-03-21T11:04:46.564Z,34.00
2019-03-21T11:07:18.816Z,33.80
2019-03-21T11:09:56.051Z,33.70
2019-03-21T11:12:32.900Z,33.60
2019-03-21T11:15:10.339Z,33.50
2019-03-21T11:17:47.329Z,33.40
2019-03-21T11:20:37.918Z,33.20
2019-03-21T11:23:15.111Z,33.10
2019-03-21T11:25:52.306Z,33.10
2019-03-21T11:28:29.384Z,33.10
2019-03-21T11:31:06.350Z,33.00
2019-03-21T11:33:43.105Z,32.80
2019-03-21T11:36:20.283Z,32.70
2019-03-21T11:38:57.141Z,32.70
2019-03-21T11:41:33.895Z,32.50
2019-03-21T11:44:11.251Z,32.50
2019-03-21T11:46:48.738Z,32.40
2019-03-21T11:49:25.413Z,32.30
2019-03-21T11:52:02.429Z,32.50
2019-03-21T11:54:46.449Z,32.40
2019-03-21T11:57:23.407Z,32.30
2019-03-21T12:00:00.654Z,32.10
2019-03-21T12:02:37.514Z,32.00
2019-03-21T12:05:15.625Z,32.10
2019-03-21T12:07:52.852Z,32.00
2019-03-21T12:10:29.612Z,32.10
2019-03-21T12:13:06.917Z,32.00
2019-03-21T12:15:46.294Z,32.00
2019-03-21T12:18:23.708Z,31.90
2019-03-21T12:21:00.246Z,31.80
2019-03-21T12:23:37.261Z,31.80
2019-03-21T12:26:13.955Z,31.70
2019-03-21T12:28:51.001Z,31.60
2019-03-21T12:31:30.068Z,31.40
2019-03-21T12:34:06.604Z,31.30
2019-03-21T12:36:43.894Z,31.40
2019-03-21T12:39:20.963Z,31.20
2019-03-21T12:41:57.726Z,31.00
2019-03-21T12:44:35.435Z,31.10
2019-03-21T12:47:13.074Z,31.00
2019-03-21T12:49:50.331Z,31.20
2019-03-21T12:52:27.560Z,30.90
2019-03-21T12:55:04.605Z,30.90
2019-03-21T12:57:41.616Z,31.00
2019-03-21T13:00:22.155Z,30.90
2019-03-21T13:02:59.262Z,30.90
2019-03-21T13:05:36.354Z,30.80
2019-03-21T13:08:13.246Z,30.80
2019-03-21T13:10:50.137Z,30.80
2019-03-21T13:13:27.589Z,30.70
2019-03-21T13:16:04.494Z,30.50
2019-03-21T13:18:41.602Z,30.60
2019-03-21T13:21:18.731Z,30.50
2019-03-21T13:23:56.999Z,30.60
2019-03-21T13:26:33.939Z,30.70
2019-03-21T13:29:11.698Z,30.70
2019-03-21T13:31:48.882Z,30.50
2019-03-21T13:34:26.102Z,30.50
2019-03-21T13:37:03.152Z,30.40
2019-03-21T13:39:39.830Z,30.30
2019-03-21T13:42:16.955Z,30.30
2019-03-21T13:44:53.577Z,30.10
2019-03-21T13:47:30.692Z,30.10
2019-03-21T13:50:07.591Z,30.20
2019-03-21T13:52:45.796Z,30.10
2019-03-21T13:55:22.135Z,30.10
2019-03-21T13:57:59.712Z,30.10
2019-03-21T14:00:36.272Z,30.20
2019-03-21T14:03:24.330Z,30.30
2019-03-21T14:05:51.469Z,30.30
2019-03-21T14:08:29.279Z,30.20
2019-03-21T14:11:06.254Z,30.60
2019-03-21T14:13:43.981Z,30.70
2019-03-21T14:16:20.580Z,30.80
2019-03-21T14:18:57.421Z,30.80
2019-03-21T14:21:34.283Z,30.80
2019-03-21T14:24:11.550Z,30.90
2019-03-21T14:26:48.408Z,30.90
2019-03-21T14:29:25.135Z,30.90
2019-03-21T14:32:01.928Z,30.90
2019-03-21T14:34:38.948Z,30.70
2019-03-21T14:37:17.702Z,30.60
2019-03-21T14:39:54.542Z,30.60
2019-03-21T14:42:31.175Z,30.60
2019-03-21T14:45:08.763Z,30.60
2019-03-21T14:47:45.917Z,30.60
2019-03-21T14:50:22.875Z,30.70
2019-03-21T14:53:00.809Z,30.90
2019-03-21T14:55:47.149Z,30.70
2019-03-21T14:58:16.225Z,30.60
2019-03-21T15:00:53.497Z,30.70
2019-03-21T15:03:30.808Z,30.80
2019-03-21T15:06:08.091Z,31.00
2019-03-21T15:08:45.276Z,30.90
2019-03-21T15:11:23.119Z,31.20
2019-03-21T15:14:00.109Z,31.20
2019-03-21T15:16:37.412Z,30.80
2019-03-21T15:19:15.697Z,31.00
2019-03-21T15:21:52.749Z,30.90
2019-03-21T15:24:29.731Z,30.80
2019-03-21T15:27:07.099Z,30.80
2019-03-21T15:29:44.100Z,30.80
2019-03-21T15:32:21.010Z,30.60
2019-03-21T15:34:58.138Z,30.50
2019-03-21T15:37:35.276Z,30.50
2019-03-21T15:40:15.091Z,30.50
2019-03-21T15:42:52.007Z,30.50
2019-03-21T15:45:28.631Z,30.50
2019-03-21T15:48:09.941Z,30.40
2019-03-21T15:50:46.036Z,30.30
2019-03-21T15:53:22.799Z,30.40
2019-03-21T15:55:59.821Z,30.30
2019-03-21T15:58:36.682Z,30.20
2019-03-21T16:01:13.332Z,30.10
2019-03-21T16:03:50.718Z,30.10
2019-03-21T16:06:28.069Z,30.00
2019-03-21T16:09:04.831Z,30.10
2019-03-21T16:11:42.110Z,30.20
2019-03-21T16:14:18.678Z,30.10
2019-03-21T16:16:56.231Z,30.10
2019-03-21T16:19:33.339Z,30.20
2019-03-21T16:22:10.107Z,30.20
2019-03-21T16:24:47.462Z,30.00
2019-03-21T16:27:24.331Z,29.90
2019-03-21T16:30:01.679Z,29.80
2019-03-21T16:32:39.922Z,29.80
2019-03-21T16:35:16.982Z,29.80
2019-03-21T16:37:54.070Z,29.70
2019-03-21T16:40:30.658Z,29.60
2019-03-21T16:43:07.792Z,29.30
2019-03-21T16:45:45.003Z,29.20
2019-03-21T16:48:21.961Z,29.00
2019-03-21T16:50:59.242Z,28.80
2019-03-21T16:53:35.958Z,28.70
2019-03-21T16:56:13.335Z,28.70
2019-03-21T16:58:50.091Z,28.50
2019-03-21T17:01:27.277Z,28.50
2019-03-21T17:04:04.484Z,28.50
2019-03-21T17:06:41.839Z,28.30
2019-03-21T17:09:19.181Z,28.20
2019-03-21T17:11:55.865Z,28.40
2019-03-21T17:14:32.821Z,28.30
2019-03-21T17:17:10.016Z,28.50
2019-03-21T17:19:46.739Z,28.40
2019-03-21T17:22:24.678Z,28.10
2019-03-21T17:25:01.891Z,28.10
2019-03-21T17:27:39.866Z,28.10
2019-03-21T17:30:16.910Z,28.00
2019-03-21T17:32:54.075Z,27.90
2019-03-21T17:35:31.278Z,27.90
2019-03-21T17:38:09.575Z,27.80
2019-03-21T17:40:46.399Z,27.80
2019-03-21T17:43:29.436Z,27.80
2019-03-21T17:46:07.654Z,27.70
2019-03-21T17:48:44.316Z,27.70
2019-03-21T17:51:21.174Z,27.60
2019-03-21T17:53:58.283Z,27.60
2019-03-21T17:56:35.787Z,27.30
2019-03-21T17:59:13.071Z,27.30
2019-03-21T18:01:50.059Z,27.40
2019-03-21T18:04:27.980Z,27.60
2019-03-21T18:07:05.183Z,27.30
2019-03-21T18:09:42.309Z,27.30
2019-03-21T18:12:19.115Z,27.40
2019-03-21T18:14:56.299Z,27.30
2019-03-21T18:17:33.348Z,27.30
2019-03-21T18:20:10.741Z,27.50
2019-03-21T18:22:48.145Z,27.50
2019-03-21T18:25:24.950Z,27.60
2019-03-21T18:28:02.627Z,27.50
2019-03-21T18:30:40.281Z,27.60
2019-03-21T18:33:19.350Z,27.50
2019-03-21T18:35:56.538Z,27.40
2019-03-21T18:38:33.876Z,27.50
2019-03-21T18:41:10.546Z,27.50
2019-03-21T18:43:47.634Z,27.40
2019-03-21T18:46:24.511Z,27.20
2019-03-21T18:49:01.496Z,27.10
2019-03-21T18:51:39.863Z,27.20
2019-03-21T18:54:17.056Z,26.80
2019-03-21T18:56:54.274Z,27.00
2019-03-21T18:59:37.566Z,27.10
2019-03-21T19:02:14.446Z,27.10
2019-03-21T19:04:51.484Z,26.90
2019-03-21T19:07:28.602Z,27.10
2019-03-21T19:10:06.043Z,27.10
2019-03-21T19:12:43.169Z,26.80
2019-03-21T19:15:20.205Z,26.90
2019-03-21T19:17:56.925Z,27.00
2019-03-21T19:20:33.952Z,27.00
2019-03-21T19:23:11.466Z,26.90
2019-03-21T19:25:48.156Z,27.10
2019-03-21T19:28:25.377Z,27.10
2019-03-21T19:31:02.595Z,27.10
2019-03-21T19:33:39.619Z,27.00
2019-03-21T19:36:16.635Z,27.10
2019-03-21T19:38:53.508Z,27.00
2019-03-21T19:41:31.515Z,26.90
2019-03-21T19:44:08.383Z,27.00
2019-03-21T19:46:45.578Z,26.80
2019-03-21T19:49:22.350Z,26.70
2019-03-21T19:51:59.617Z,26.80
2019-03-21T19:54:36.488Z,26.90
2019-03-21T19:57:13.414Z,26.80
2019-03-21T19:59:50.135Z,26.90
2019-03-21T20:02:27.492Z,26.80
2019-03-21T20:05:04.559Z,26.90
2019-03-21T20:07:42.098Z,27.00
2019-03-21T20:10:19.836Z,26.90
2019-03-21T20:12:56.966Z,26.70
2019-03-21T20:15:34.477Z,26.70
2019-03-21T20:18:11.342Z,26.80
2019-03-21T20:20:49.728Z,26.80
2019-03-21T20:23:26.928Z,26.80
2019-03-21T20:26:04.248Z,26.60
2019-03-21T20:28:41.458Z,26.60
2019-03-21T20:31:19.425Z,26.50
2019-03-21T20:33:56.463Z,26.50
2019-03-21T20:36:33.425Z,26.40
2019-03-21T20:39:11.414Z,26.40
2019-03-21T20:41:48.653Z,26.40
2019-03-21T20:44:27.301Z,26.40
2019-03-21T20:47:04.529Z,26.40
2019-03-21T20:49:41.596Z,26.30
2019-03-21T20:52:19.058Z,26.10
2019-03-21T20:54:56.004Z,26.00
2019-03-21T20:57:33.135Z,26.00
2019-03-21T21:00:10.742Z,26.10
2019-03-21T21:02:48.159Z,26.00
2019-03-21T21:05:25.201Z,25.90
2019-03-21T21:08:03.075Z,25.90
2019-03-21T21:10:40.128Z,25.90
2019-03-21T21:13:16.829Z,25.90
2019-03-21T21:15:53.852Z,25.70
2019-03-21T21:18:31.132Z,25.70
2019-03-21T21:21:08.330Z,25.40
2019-03-21T21:23:46.158Z,25.30
2019-03-21T21:26:22.808Z,25.10
2019-03-21T21:29:00.386Z,25.40
2019-03-21T21:31:37.311Z,25.50
2019-03-21T21:34:13.982Z,25.60
2019-03-21T21:36:51.491Z,25.70
2019-03-21T21:39:28.527Z,25.80
2019-03-21T21:42:07.228Z,25.80
2019-03-21T21:44:43.863Z,25.80
2019-03-21T21:47:20.663Z,25.80
2019-03-21T21:49:57.852Z,26.00
2019-03-21T21:52:42.029Z,26.10
2019-03-21T21:55:13.915Z,26.00
2019-03-21T21:57:50.819Z,26.10
2019-03-21T22:00:27.993Z,26.10
2019-03-21T22:03:05.344Z,26.10
2019-03-21T22:05:42.136Z,26.10
2019-03-21T22:08:19.567Z,26.30
2019-03-21T22:10:57.289Z,26.30
2019-03-21T22:13:34.087Z,26.10
2019-03-21T22:16:11.245Z,25.80
2019-03-21T22:18:48.238Z,25.80
2019-03-21T22:21:25.337Z,25.80
2019-03-21T22:24:02.156Z,25.60
2019-03-21T22:26:39.098Z,25.50
2019-03-21T22:29:16.175Z,25.70
2019-03-21T22:31:53.697Z,26.00
2019-03-21T22:34:32.304Z,26.20
2019-03-21T22:37:09.205Z,26.10
2019-03-21T22:39:46.006Z,26.00
2019-03-21T22:42:23.068Z,25.80
2019-03-21T22:45:00.351Z,25.60
2019-03-21T22:47:36.838Z,25.40
2019-03-21T22:50:15.800Z,25.20
2019-03-21T22:52:52.773Z,25.10
2019-03-21T22:55:30.031Z,25.20
2019-03-21T22:58:06.964Z,25.00
2019-03-21T23:00:45.776Z,25.10
2019-03-21T23:03:23.500Z,25.10
2019-03-21T23:06:01.213Z,25.40
2019-03-21T23:08:38.134Z,25.30
2019-03-21T23:11:15.128Z,25.10
2019-03-21T23:13:54.348Z,25.10
2019-03-21T23:16:32.229Z,25.20
2019-03-21T23:19:09.123Z,25.20
2019-03-21T23:21:45.621Z,25.20
2019-03-21T23:24:22.997Z,25.20
2019-03-21T23:27:00.167Z,25.00
2019-03-21T23:29:36.856Z,25.20
2019-03-21T23:32:13.696Z,25.20
2019-03-21T23:34:51.702Z,25.20
2019-03-21T23:37:29.827Z,25.40
2019-03-21T23:40:06.663Z,25.50
2019-03-21T23:42:43.529Z,25.40
2019-03-21T23:45:20.508Z,25.50
2019-03-21T23:47:57.613Z,25.30
2019-03-21T23:50:35.450Z,25.10
2019-03-21T23:53:12.230Z,25.00
2019-03-21T23:55:49.216Z,25.10
2019-03-21T23:58:27.397Z,25.20
